AEZ209 LGSR-LICA
Flight info
| Callsign | AEZ209 |
|---|---|
| Flight time | 1h 21m |
| Altitude | 38000 |
| Route | NETIS M601 CRN |
| Aircraft | B738/M-SDE2E3FGHIRWXY/LB1 |
Departure
| Time | 2026-04-21 23:36 |
|---|---|
| Airport | Santorini International Airport (LGSR) |
Arrival
| Time | 2026-04-22 00:58 |
|---|---|
| Airport | Lamezia Terme Sant'Eufemia International Airport (LICA) |
| Time | Latitude | Longitude | Altitude | Speed | Heading |
|---|---|---|---|---|---|
| 2026-04-21 23:25 | 36.40351 | 25.47384 | 116 ft | 0 kts | 249° |
| 2026-04-21 23:28 | 36.40351 | 25.47385 | 116 ft | 0 kts | 249° |
| 2026-04-21 23:28 | 36.40353 | 25.47390 | 111 ft | 1 kts | 249° |
| 2026-04-21 23:28 | 36.40355 | 25.47399 | 112 ft | 1 kts | 249° |
| 2026-04-21 23:29 | 36.40360 | 25.47413 | 112 ft | 5 kts | 249° |
| 2026-04-21 23:29 | 36.40369 | 25.47431 | 115 ft | 0 kts | 161° |
| 2026-04-21 23:30 | 36.40363 | 25.47433 | 114 ft | 3 kts | 162° |
| 2026-04-21 23:30 | 36.40306 | 25.47458 | 113 ft | 13 kts | 161° |
| 2026-04-21 23:31 | 36.40272 | 25.47549 | 112 ft | 14 kts | 97° |
| 2026-04-21 23:31 | 36.40197 | 25.47618 | 109 ft | 15 kts | 154° |
| 2026-04-21 23:31 | 36.40088 | 25.47666 | 105 ft | 19 kts | 161° |
| 2026-04-21 23:31 | 36.39945 | 25.47734 | 100 ft | 25 kts | 159° |
| 2026-04-21 23:32 | 36.39768 | 25.47818 | 93 ft | 29 kts | 159° |
| 2026-04-21 23:32 | 36.39572 | 25.47910 | 86 ft | 32 kts | 159° |
| 2026-04-21 23:32 | 36.39355 | 25.48012 | 70 ft | 34 kts | 159° |
| 2026-04-21 23:32 | 36.39165 | 25.48104 | 66 ft | 30 kts | 158° |
| 2026-04-21 23:33 | 36.39027 | 25.48165 | 60 ft | 16 kts | 158° |
| 2026-04-21 23:33 | 36.39019 | 25.48269 | 57 ft | 13 kts | 67° |
| 2026-04-21 23:33 | 36.39064 | 25.48313 | 61 ft | 6 kts | 346° |
| 2026-04-21 23:33 | 36.39068 | 25.48311 | 61 ft | 0 kts | 343° |
| 2026-04-21 23:35 | 36.39096 | 25.48300 | 62 ft | 27 kts | 339° |
| 2026-04-21 23:35 | 36.39557 | 25.48083 | 84 ft | 112 kts | 339° |
| 2026-04-21 23:36 | 36.40502 | 25.47639 | 260 ft | 170 kts | 335° |
| 2026-04-21 23:36 | 36.41701 | 25.47175 | 1097 ft | 179 kts | 340° |
| 2026-04-21 23:36 | 36.42853 | 25.46818 | 2354 ft | 174 kts | 340° |
| 2026-04-21 23:36 | 36.44126 | 25.46433 | 2799 ft | 204 kts | 340° |
| 2026-04-21 23:37 | 36.45570 | 25.46004 | 3232 ft | 219 kts | 341° |
| 2026-04-21 23:37 | 36.47073 | 25.45563 | 3878 ft | 223 kts | 342° |
| 2026-04-21 23:37 | 36.48593 | 25.45117 | 4593 ft | 227 kts | 343° |
| 2026-04-21 23:37 | 36.50112 | 25.44670 | 5481 ft | 224 kts | 343° |
| 2026-04-21 23:38 | 36.51596 | 25.44049 | 6194 ft | 228 kts | 324° |
| 2026-04-21 23:38 | 36.52630 | 25.42603 | 6978 ft | 224 kts | 294° |
| 2026-04-21 23:38 | 36.53013 | 25.40749 | 7805 ft | 223 kts | 271° |
| 2026-04-21 23:38 | 36.52917 | 25.38803 | 8505 ft | 228 kts | 266° |
| 2026-04-21 23:39 | 36.52765 | 25.36853 | 9394 ft | 225 kts | 265° |
| 2026-04-21 23:39 | 36.52576 | 25.34897 | 10105 ft | 230 kts | 264° |
| 2026-04-21 23:39 | 36.52357 | 25.32924 | 10864 ft | 230 kts | 263° |
| 2026-04-21 23:39 | 36.52131 | 25.30947 | 11569 ft | 232 kts | 263° |
| 2026-04-21 23:40 | 36.51903 | 25.28950 | 12287 ft | 234 kts | 265° |
| 2026-04-21 23:40 | 36.52065 | 25.26956 | 12985 ft | 236 kts | 289° |
| 2026-04-21 23:40 | 36.52541 | 25.25707 | 13224 ft | 250 kts | 300° |
| 2026-04-21 23:40 | 36.53584 | 25.23840 | 13422 ft | 275 kts | 305° |
| 2026-04-21 23:41 | 36.54797 | 25.21881 | 13623 ft | 298 kts | 306° |
| 2026-04-21 23:41 | 36.56121 | 25.19766 | 13800 ft | 321 kts | 306° |
| 2026-04-21 23:41 | 36.57532 | 25.17497 | 14005 ft | 341 kts | 306° |
| 2026-04-21 23:41 | 36.58995 | 25.15121 | 14501 ft | 349 kts | 306° |
| 2026-04-21 23:42 | 36.60465 | 25.12712 | 15207 ft | 350 kts | 305° |
| 2026-04-21 23:42 | 36.61937 | 25.10287 | 15933 ft | 352 kts | 305° |
| 2026-04-21 23:42 | 36.63418 | 25.07836 | 16609 ft | 355 kts | 305° |
| 2026-04-21 23:42 | 36.64907 | 25.05367 | 17273 ft | 359 kts | 305° |
| 2026-04-21 23:43 | 36.66412 | 25.02870 | 17930 ft | 362 kts | 305° |
| 2026-04-21 23:43 | 36.67925 | 25.00359 | 18552 ft | 364 kts | 305° |
| 2026-04-21 23:43 | 36.69426 | 24.97803 | 19118 ft | 366 kts | 300° |
| 2026-04-21 23:43 | 36.70455 | 24.94905 | 19651 ft | 368 kts | 284° |
| 2026-04-21 23:44 | 36.70891 | 24.91759 | 20247 ft | 370 kts | 278° |
| 2026-04-21 23:44 | 36.71207 | 24.88563 | 20764 ft | 373 kts | 277° |
| 2026-04-21 23:44 | 36.71505 | 24.85329 | 21276 ft | 377 kts | 277° |
| 2026-04-21 23:44 | 36.71808 | 24.82068 | 21800 ft | 380 kts | 277° |
| 2026-04-21 23:45 | 36.72122 | 24.78785 | 22316 ft | 383 kts | 278° |
| 2026-04-21 23:45 | 36.72780 | 24.72147 | 23308 ft | 389 kts | 278° |
| 2026-04-21 23:45 | 36.73117 | 24.68791 | 23751 ft | 392 kts | 278° |
| 2026-04-21 23:46 | 36.73456 | 24.65411 | 24171 ft | 394 kts | 278° |
| 2026-04-21 23:46 | 36.73796 | 24.62017 | 24591 ft | 396 kts | 278° |
| 2026-04-21 23:46 | 36.74139 | 24.58595 | 24990 ft | 399 kts | 278° |
| 2026-04-21 23:46 | 36.74482 | 24.55155 | 25382 ft | 401 kts | 278° |
| 2026-04-21 23:47 | 36.74946 | 24.51729 | 25760 ft | 403 kts | 284° |
| 2026-04-21 23:47 | 36.75814 | 24.48388 | 26156 ft | 405 kts | 291° |
| 2026-04-21 23:47 | 36.76848 | 24.45120 | 26527 ft | 407 kts | 291° |
| 2026-04-21 23:47 | 36.77887 | 24.41872 | 26890 ft | 409 kts | 291° |
| 2026-04-21 23:48 | 36.78952 | 24.38522 | 27251 ft | 412 kts | 291° |
| 2026-04-21 23:48 | 36.80002 | 24.35189 | 27601 ft | 414 kts | 291° |
| 2026-04-21 23:48 | 36.81036 | 24.31881 | 27949 ft | 416 kts | 291° |
| 2026-04-21 23:48 | 36.82098 | 24.28461 | 28282 ft | 418 kts | 291° |
| 2026-04-21 23:49 | 36.83148 | 24.25068 | 28604 ft | 420 kts | 291° |
| 2026-04-21 23:49 | 36.84187 | 24.21705 | 28911 ft | 422 kts | 291° |
| 2026-04-21 23:49 | 36.85244 | 24.18277 | 29221 ft | 424 kts | 291° |
| 2026-04-21 23:49 | 36.86305 | 24.14833 | 29531 ft | 426 kts | 291° |
| 2026-04-21 23:50 | 36.87371 | 24.11367 | 29827 ft | 428 kts | 291° |
| 2026-04-21 23:50 | 36.88438 | 24.07891 | 30105 ft | 430 kts | 291° |
| 2026-04-21 23:50 | 36.89509 | 24.04404 | 30419 ft | 429 kts | 291° |
| 2026-04-21 23:50 | 36.90573 | 24.00938 | 30853 ft | 426 kts | 291° |
| 2026-04-21 23:51 | 36.91628 | 23.97498 | 31318 ft | 422 kts | 291° |
| 2026-04-21 23:51 | 36.92679 | 23.94082 | 31731 ft | 419 kts | 291° |
| 2026-04-21 23:51 | 36.93724 | 23.90689 | 32081 ft | 418 kts | 291° |
| 2026-04-21 23:51 | 36.94769 | 23.87294 | 32414 ft | 417 kts | 291° |
| 2026-04-21 23:52 | 36.95806 | 23.83915 | 32793 ft | 415 kts | 291° |
| 2026-04-21 23:52 | 36.96836 | 23.80556 | 33196 ft | 412 kts | 291° |
| 2026-04-21 23:52 | 36.97857 | 23.77217 | 33574 ft | 410 kts | 291° |
| 2026-04-21 23:52 | 36.98873 | 23.73890 | 33904 ft | 409 kts | 291° |
| 2026-04-21 23:53 | 36.99887 | 23.70568 | 34182 ft | 408 kts | 291° |
| 2026-04-21 23:53 | 37.00896 | 23.67255 | 34443 ft | 407 kts | 291° |
| 2026-04-21 23:53 | 37.01902 | 23.63949 | 34693 ft | 407 kts | 291° |
| 2026-04-21 23:53 | 37.02908 | 23.60642 | 34932 ft | 406 kts | 291° |
| 2026-04-21 23:54 | 37.03910 | 23.57341 | 35203 ft | 405 kts | 291° |
| 2026-04-21 23:54 | 37.04908 | 23.54050 | 35445 ft | 404 kts | 291° |
| 2026-04-21 23:54 | 37.05904 | 23.50760 | 35665 ft | 404 kts | 291° |
| 2026-04-21 23:54 | 37.06899 | 23.47472 | 35899 ft | 403 kts | 291° |
| 2026-04-21 23:55 | 37.07890 | 23.44190 | 36148 ft | 402 kts | 291° |
| 2026-04-21 23:55 | 37.08879 | 23.40911 | 36375 ft | 402 kts | 291° |
| 2026-04-21 23:55 | 37.09866 | 23.37636 | 36590 ft | 402 kts | 291° |
| 2026-04-21 23:55 | 37.10851 | 23.34367 | 36823 ft | 401 kts | 291° |
| 2026-04-21 23:56 | 37.11832 | 23.31104 | 37045 ft | 400 kts | 291° |
| 2026-04-21 23:56 | 37.12812 | 23.27844 | 37243 ft | 400 kts | 291° |
| 2026-04-21 23:56 | 37.13789 | 23.24583 | 37464 ft | 399 kts | 291° |
| 2026-04-21 23:56 | 37.14761 | 23.21331 | 37675 ft | 398 kts | 291° |
| 2026-04-21 23:57 | 37.15732 | 23.18077 | 37855 ft | 398 kts | 291° |
| 2026-04-21 23:57 | 37.16700 | 23.14827 | 37963 ft | 398 kts | 291° |
| 2026-04-21 23:57 | 37.17669 | 23.11571 | 37963 ft | 399 kts | 290° |
| 2026-04-21 23:58 | 37.19605 | 23.05051 | 37974 ft | 398 kts | 290° |
| 2026-04-21 23:58 | 37.21520 | 22.98587 | 37973 ft | 397 kts | 290° |
| 2026-04-21 23:59 | 37.23438 | 22.92095 | 37980 ft | 396 kts | 290° |
| 2026-04-21 23:59 | 37.25350 | 22.85612 | 37984 ft | 396 kts | 290° |
| 2026-04-22 00:00 | 37.27252 | 22.79144 | 38002 ft | 394 kts | 290° |
| 2026-04-22 00:00 | 37.29149 | 22.72682 | 38004 ft | 394 kts | 290° |
| 2026-04-22 00:01 | 37.31042 | 22.66213 | 38011 ft | 395 kts | 290° |
| 2026-04-22 00:01 | 37.32935 | 22.59733 | 38013 ft | 395 kts | 290° |
| 2026-04-22 00:02 | 37.34824 | 22.53246 | 38013 ft | 395 kts | 290° |
| 2026-04-22 00:02 | 37.36706 | 22.46769 | 38023 ft | 393 kts | 290° |
| 2026-04-22 00:03 | 37.38578 | 22.40311 | 38031 ft | 393 kts | 290° |
| 2026-04-22 00:03 | 37.40463 | 22.33877 | 38038 ft | 392 kts | 292° |
| 2026-04-22 00:04 | 37.42847 | 22.27714 | 38043 ft | 391 kts | 296° |
| 2026-04-22 00:04 | 37.45301 | 22.21615 | 38047 ft | 391 kts | 296° |
| 2026-04-22 00:05 | 37.47742 | 22.15504 | 38063 ft | 390 kts | 296° |
| 2026-04-22 00:05 | 37.50163 | 22.09394 | 38053 ft | 389 kts | 295° |
| 2026-04-22 00:06 | 37.52572 | 22.03290 | 38051 ft | 389 kts | 296° |
| 2026-04-22 00:06 | 37.54976 | 21.97183 | 38054 ft | 389 kts | 295° |
| 2026-04-22 00:07 | 37.57376 | 21.91072 | 38053 ft | 389 kts | 295° |
| 2026-04-22 00:07 | 37.59774 | 21.84957 | 38049 ft | 389 kts | 295° |
| 2026-04-22 00:08 | 37.62165 | 21.78844 | 37465 ft | 392 kts | 296° |
| 2026-04-22 00:08 | 37.64597 | 21.72614 | 37620 ft | 395 kts | 296° |
| 2026-04-22 00:08 | 37.65808 | 21.69509 | 37796 ft | 395 kts | 296° |
| 2026-04-22 00:09 | 37.67019 | 21.66400 | 37890 ft | 396 kts | 296° |
| 2026-04-22 00:09 | 37.69445 | 21.60164 | 38002 ft | 400 kts | 296° |
| 2026-04-22 00:10 | 37.71919 | 21.53791 | 38014 ft | 408 kts | 296° |
| 2026-04-22 00:10 | 37.74433 | 21.47300 | 38014 ft | 415 kts | 296° |
| 2026-04-22 00:11 | 37.76990 | 21.40686 | 38012 ft | 423 kts | 296° |
| 2026-04-22 00:11 | 37.79591 | 21.33942 | 38013 ft | 430 kts | 296° |
| 2026-04-22 00:12 | 37.82230 | 21.27088 | 38012 ft | 437 kts | 296° |
| 2026-04-22 00:12 | 37.84908 | 21.20114 | 38011 ft | 444 kts | 296° |
| 2026-04-22 00:13 | 37.87623 | 21.13028 | 38012 ft | 450 kts | 296° |
| 2026-04-22 00:13 | 37.90370 | 21.05843 | 38008 ft | 456 kts | 295° |
| 2026-04-22 00:14 | 37.93145 | 20.98564 | 38006 ft | 461 kts | 295° |
| 2026-04-22 00:14 | 37.95939 | 20.91221 | 38003 ft | 464 kts | 295° |
| 2026-04-22 00:15 | 37.98743 | 20.83832 | 37999 ft | 465 kts | 295° |
| 2026-04-22 00:15 | 38.01542 | 20.76438 | 37998 ft | 465 kts | 295° |
| 2026-04-22 00:16 | 38.04328 | 20.69058 | 37996 ft | 463 kts | 295° |
| 2026-04-22 00:16 | 38.07079 | 20.61752 | 37996 ft | 461 kts | 295° |
| 2026-04-22 00:17 | 38.09850 | 20.54379 | 37999 ft | 458 kts | 295° |
| 2026-04-22 00:17 | 38.12387 | 20.46991 | 38003 ft | 456 kts | 290° |
| 2026-04-22 00:18 | 38.14454 | 20.39455 | 37997 ft | 454 kts | 288° |
| 2026-04-22 00:18 | 38.16481 | 20.31867 | 38001 ft | 453 kts | 289° |
| 2026-04-22 00:19 | 38.18523 | 20.24354 | 37989 ft | 446 kts | 289° |
| 2026-04-22 00:19 | 38.20552 | 20.16946 | 37995 ft | 442 kts | 289° |
| 2026-04-22 00:20 | 38.22569 | 20.09576 | 37998 ft | 440 kts | 289° |
| 2026-04-22 00:20 | 38.24569 | 20.02238 | 38002 ft | 438 kts | 289° |
| 2026-04-22 00:21 | 38.26562 | 19.94906 | 38003 ft | 439 kts | 289° |
| 2026-04-22 00:21 | 38.28551 | 19.87563 | 38005 ft | 440 kts | 289° |
| 2026-04-22 00:22 | 38.30545 | 19.80183 | 38006 ft | 442 kts | 289° |
| 2026-04-22 00:22 | 38.32544 | 19.72769 | 38006 ft | 444 kts | 289° |
| 2026-04-22 00:23 | 38.34549 | 19.65302 | 38005 ft | 446 kts | 289° |
| 2026-04-22 00:23 | 38.36555 | 19.57801 | 38003 ft | 448 kts | 288° |
| 2026-04-22 00:24 | 38.38563 | 19.50266 | 38001 ft | 450 kts | 288° |
| 2026-04-22 00:24 | 38.40569 | 19.42716 | 38001 ft | 450 kts | 288° |
| 2026-04-22 00:25 | 38.42573 | 19.35149 | 38000 ft | 450 kts | 288° |
| 2026-04-22 00:25 | 38.44568 | 19.27598 | 37999 ft | 449 kts | 288° |
| 2026-04-22 00:26 | 38.45232 | 19.25075 | 37993 ft | 446 kts | 288° |
| 2026-04-22 00:27 | 38.46979 | 19.18435 | 37990 ft | 434 kts | 288° |
| 2026-04-22 00:28 | 38.48887 | 19.11159 | 37996 ft | 431 kts | 288° |
| 2026-04-22 00:28 | 38.50474 | 19.05093 | 38000 ft | 429 kts | 288° |
| 2026-04-22 00:29 | 38.52358 | 18.97880 | 38001 ft | 428 kts | 288° |
| 2026-04-22 00:29 | 38.54222 | 18.90726 | 38003 ft | 427 kts | 288° |
| 2026-04-22 00:30 | 38.56020 | 18.83799 | 38004 ft | 428 kts | 288° |
| 2026-04-22 00:30 | 38.57545 | 18.77906 | 37938 ft | 426 kts | 288° |
| 2026-04-22 00:30 | 38.58483 | 18.74274 | 37078 ft | 434 kts | 288° |
| 2026-04-22 00:31 | 38.59428 | 18.70609 | 36335 ft | 434 kts | 288° |
| 2026-04-22 00:31 | 38.60372 | 18.66946 | 35538 ft | 433 kts | 288° |
| 2026-04-22 00:31 | 38.61311 | 18.63294 | 34750 ft | 433 kts | 288° |
| 2026-04-22 00:31 | 38.62250 | 18.59638 | 33963 ft | 432 kts | 288° |
| 2026-04-22 00:32 | 38.63183 | 18.55996 | 33182 ft | 431 kts | 288° |
| 2026-04-22 00:32 | 38.64119 | 18.52341 | 32387 ft | 436 kts | 288° |
| 2026-04-22 00:32 | 38.65069 | 18.48622 | 31496 ft | 445 kts | 288° |
| 2026-04-22 00:32 | 38.66036 | 18.44835 | 30607 ft | 449 kts | 288° |
| 2026-04-22 00:33 | 38.66998 | 18.41059 | 30219 ft | 443 kts | 288° |
| 2026-04-22 00:33 | 38.67935 | 18.37374 | 30168 ft | 428 kts | 288° |
| 2026-04-22 00:33 | 38.68842 | 18.33802 | 30078 ft | 416 kts | 288° |
| 2026-04-22 00:33 | 38.69724 | 18.30323 | 29853 ft | 408 kts | 288° |
| 2026-04-22 00:34 | 38.70595 | 18.26883 | 29434 ft | 404 kts | 288° |
| 2026-04-22 00:34 | 38.71461 | 18.23461 | 28936 ft | 403 kts | 288° |
| 2026-04-22 00:34 | 38.72321 | 18.20051 | 28457 ft | 402 kts | 288° |
| 2026-04-22 00:34 | 38.73171 | 18.16653 | 28025 ft | 399 kts | 287° |
| 2026-04-22 00:35 | 38.74011 | 18.13281 | 27612 ft | 396 kts | 287° |
| 2026-04-22 00:35 | 38.74844 | 18.09933 | 27194 ft | 393 kts | 287° |
| 2026-04-22 00:35 | 38.75668 | 18.06611 | 26768 ft | 390 kts | 287° |
| 2026-04-22 00:35 | 38.76489 | 18.03302 | 26344 ft | 388 kts | 287° |
| 2026-04-22 00:36 | 38.77301 | 18.00021 | 25895 ft | 386 kts | 287° |
| 2026-04-22 00:36 | 38.78119 | 17.96714 | 25114 ft | 393 kts | 287° |
| 2026-04-22 00:36 | 38.78950 | 17.93351 | 24248 ft | 397 kts | 287° |
| 2026-04-22 00:36 | 38.79780 | 17.89985 | 23374 ft | 396 kts | 287° |
| 2026-04-22 00:37 | 38.80607 | 17.86628 | 22504 ft | 395 kts | 287° |
| 2026-04-22 00:37 | 38.80796 | 17.85857 | 22304 ft | 394 kts | 287° |
| 2026-04-22 00:37 | 38.81265 | 17.83950 | 21810 ft | 393 kts | 287° |
| 2026-04-22 00:37 | 38.82085 | 17.80611 | 20936 ft | 392 kts | 287° |
| 2026-04-22 00:38 | 38.82902 | 17.77286 | 20091 ft | 389 kts | 287° |
| 2026-04-22 00:38 | 38.83693 | 17.74062 | 19810 ft | 372 kts | 287° |
| 2026-04-22 00:38 | 38.84457 | 17.70945 | 19329 ft | 361 kts | 287° |
| 2026-04-22 00:38 | 38.85200 | 17.67914 | 18927 ft | 351 kts | 287° |
| 2026-04-22 00:39 | 38.85920 | 17.64977 | 18527 ft | 341 kts | 287° |
| 2026-04-22 00:39 | 38.86620 | 17.62115 | 18150 ft | 332 kts | 287° |
| 2026-04-22 00:39 | 38.87300 | 17.59327 | 17781 ft | 323 kts | 287° |
| 2026-04-22 00:39 | 38.87963 | 17.56605 | 17413 ft | 316 kts | 287° |
| 2026-04-22 00:40 | 38.88604 | 17.53973 | 17054 ft | 311 kts | 287° |
| 2026-04-22 00:40 | 38.89245 | 17.51334 | 16697 ft | 308 kts | 287° |
| 2026-04-22 00:40 | 38.89887 | 17.48689 | 16341 ft | 315 kts | 287° |
| 2026-04-22 00:40 | 38.90553 | 17.45943 | 15947 ft | 328 kts | 287° |
| 2026-04-22 00:41 | 38.91231 | 17.43145 | 15540 ft | 326 kts | 287° |
| 2026-04-22 00:41 | 38.91894 | 17.40405 | 15157 ft | 317 kts | 287° |
| 2026-04-22 00:41 | 38.92539 | 17.37739 | 14786 ft | 309 kts | 287° |
| 2026-04-22 00:41 | 38.93168 | 17.35134 | 14417 ft | 302 kts | 287° |
| 2026-04-22 00:42 | 38.93784 | 17.32578 | 14061 ft | 299 kts | 287° |
| 2026-04-22 00:42 | 38.94396 | 17.30038 | 13714 ft | 297 kts | 287° |
| 2026-04-22 00:42 | 38.95010 | 17.27482 | 13355 ft | 305 kts | 287° |
| 2026-04-22 00:42 | 38.95646 | 17.24837 | 12978 ft | 314 kts | 287° |
| 2026-04-22 00:43 | 38.96288 | 17.22159 | 12598 ft | 310 kts | 287° |
| 2026-04-22 00:43 | 38.96915 | 17.19545 | 12222 ft | 302 kts | 287° |
| 2026-04-22 00:43 | 38.97527 | 17.16991 | 11871 ft | 298 kts | 287° |
| 2026-04-22 00:43 | 38.98135 | 17.14451 | 11538 ft | 297 kts | 287° |
| 2026-04-22 00:44 | 38.98741 | 17.11919 | 11189 ft | 297 kts | 287° |
| 2026-04-22 00:44 | 38.99266 | 17.09363 | 10834 ft | 296 kts | 275° |
| 2026-04-22 00:44 | 38.99249 | 17.07678 | 10586 ft | 296 kts | 261° |
| 2026-04-22 00:45 | 38.98995 | 17.06380 | 10416 ft | 295 kts | 250° |
| 2026-04-22 00:46 | 38.98232 | 17.03963 | 10219 ft | 289 kts | 247° |
| 2026-04-22 00:46 | 38.97442 | 17.01620 | 10084 ft | 281 kts | 246° |
| 2026-04-22 00:46 | 38.96670 | 16.99362 | 9856 ft | 273 kts | 246° |
| 2026-04-22 00:46 | 38.95915 | 16.97140 | 9588 ft | 270 kts | 246° |
| 2026-04-22 00:47 | 38.95167 | 16.94931 | 9324 ft | 269 kts | 246° |
| 2026-04-22 00:47 | 38.94422 | 16.92720 | 9061 ft | 270 kts | 246° |
| 2026-04-22 00:47 | 38.93686 | 16.90529 | 8770 ft | 263 kts | 246° |
| 2026-04-22 00:47 | 38.92971 | 16.88401 | 8510 ft | 256 kts | 246° |
| 2026-04-22 00:48 | 38.92278 | 16.86331 | 8243 ft | 249 kts | 246° |
| 2026-04-22 00:48 | 38.91605 | 16.84326 | 7995 ft | 241 kts | 246° |
| 2026-04-22 00:48 | 38.90951 | 16.82378 | 7747 ft | 234 kts | 246° |
| 2026-04-22 00:48 | 38.90325 | 16.80511 | 7507 ft | 227 kts | 246° |
| 2026-04-22 00:49 | 38.89708 | 16.78675 | 7290 ft | 221 kts | 246° |
| 2026-04-22 00:49 | 38.89104 | 16.76875 | 7057 ft | 219 kts | 246° |
| 2026-04-22 00:49 | 38.88501 | 16.75078 | 6852 ft | 220 kts | 246° |
| 2026-04-22 00:49 | 38.87895 | 16.73273 | 6614 ft | 221 kts | 246° |
| 2026-04-22 00:50 | 38.87284 | 16.71459 | 6366 ft | 222 kts | 246° |
| 2026-04-22 00:50 | 38.86674 | 16.69645 | 6195 ft | 220 kts | 246° |
| 2026-04-22 00:50 | 38.86076 | 16.67873 | 6085 ft | 213 kts | 246° |
| 2026-04-22 00:50 | 38.85599 | 16.66115 | 5924 ft | 208 kts | 266° |
| 2026-04-22 00:51 | 38.85759 | 16.64305 | 5753 ft | 202 kts | 279° |
| 2026-04-22 00:51 | 38.85983 | 16.62537 | 5487 ft | 199 kts | 278° |
| 2026-04-22 00:51 | 38.86197 | 16.60780 | 5231 ft | 200 kts | 278° |
| 2026-04-22 00:51 | 38.86449 | 16.59038 | 4966 ft | 198 kts | 279° |
| 2026-04-22 00:52 | 38.86692 | 16.57300 | 4738 ft | 199 kts | 279° |
| 2026-04-22 00:52 | 38.86912 | 16.55552 | 4486 ft | 198 kts | 278° |
| 2026-04-22 00:52 | 38.87124 | 16.53777 | 4079 ft | 205 kts | 278° |
| 2026-04-22 00:52 | 38.87333 | 16.51971 | 3766 ft | 204 kts | 278° |
| 2026-04-22 00:53 | 38.87536 | 16.50200 | 3553 ft | 199 kts | 278° |
| 2026-04-22 00:53 | 38.87732 | 16.48469 | 3355 ft | 194 kts | 277° |
| 2026-04-22 00:53 | 38.87931 | 16.46771 | 3110 ft | 191 kts | 278° |
| 2026-04-22 00:53 | 38.88122 | 16.45131 | 2944 ft | 181 kts | 278° |
| 2026-04-22 00:54 | 38.88297 | 16.43610 | 2822 ft | 164 kts | 278° |
| 2026-04-22 00:54 | 38.88455 | 16.42234 | 2669 ft | 150 kts | 278° |
| 2026-04-22 00:54 | 38.88608 | 16.40909 | 2435 ft | 148 kts | 278° |
| 2026-04-22 00:54 | 38.88760 | 16.39598 | 2236 ft | 147 kts | 278° |
| 2026-04-22 00:55 | 38.88907 | 16.38302 | 2012 ft | 145 kts | 278° |
| 2026-04-22 00:55 | 38.89056 | 16.37015 | 1842 ft | 148 kts | 278° |
| 2026-04-22 00:55 | 38.89346 | 16.34427 | 1457 ft | 145 kts | 278° |
| 2026-04-22 00:56 | 38.89501 | 16.33137 | 1257 ft | 146 kts | 278° |
| 2026-04-22 00:56 | 38.89651 | 16.31862 | 1050 ft | 144 kts | 278° |
| 2026-04-22 00:56 | 38.89800 | 16.30588 | 874 ft | 146 kts | 278° |
| 2026-04-22 00:56 | 38.89949 | 16.29306 | 664 ft | 144 kts | 278° |
| 2026-04-22 00:57 | 38.90097 | 16.28038 | 472 ft | 144 kts | 278° |
| 2026-04-22 00:57 | 38.90244 | 16.26776 | 296 ft | 143 kts | 278° |
| 2026-04-22 00:57 | 38.90390 | 16.25536 | 84 ft | 141 kts | 278° |
| 2026-04-22 00:57 | 38.90515 | 16.24403 | 38 ft | 111 kts | 279° |
| 2026-04-22 00:58 | 38.90597 | 16.23796 | 32 ft | 37 kts | 279° |
| 2026-04-22 00:58 | 38.90703 | 16.23539 | 33 ft | 19 kts | 309° |
| 2026-04-22 00:58 | 38.90771 | 16.23485 | 32 ft | 12 kts | 353° |
| 2026-04-22 00:58 | 38.90834 | 16.23551 | 32 ft | 14 kts | 76° |
| 2026-04-22 00:59 | 38.90828 | 16.23696 | 33 ft | 18 kts | 99° |
| 2026-04-22 00:59 | 38.90802 | 16.23870 | 35 ft | 21 kts | 98° |
| 2026-04-22 00:59 | 38.90786 | 16.24021 | 36 ft | 17 kts | 100° |
| 2026-04-22 00:59 | 38.90789 | 16.24170 | 35 ft | 11 kts | 60° |
| 2026-04-22 01:00 | 38.90828 | 16.24264 | 38 ft | 13 kts | 81° |
| 2026-04-22 01:00 | 38.90819 | 16.24370 | 38 ft | 11 kts | 99° |
| 2026-04-22 01:00 | 38.90810 | 16.24464 | 37 ft | 6 kts | 98° |
| 2026-04-22 01:00 | 38.90819 | 16.24523 | 39 ft | 7 kts | 53° |
| 2026-04-22 01:01 | 38.90845 | 16.24549 | 40 ft | 5 kts | 37° |
| 2026-04-22 01:01 | 38.90863 | 16.24550 | 40 ft | 2 kts | 344° |
| 2026-04-22 01:01 | 38.90865 | 16.24546 | 40 ft | 0 kts | 314° |
| 2026-04-22 01:01 | 38.90864 | 16.24543 | 40 ft | 1 kts | 281° |
| 2026-04-22 01:02 | 38.90860 | 16.24531 | 38 ft | 3 kts | 236° |
| 2026-04-22 01:02 | 38.90854 | 16.24525 | 38 ft | 0 kts | 217° |